Time;durP1;ratioP1;P1;durP2;ratioP2;P2;SDS_P1;SDS_P2;PMS_P1;PMS_P2;Temp;Humidity;BMP_temperature;BMP_pressure;BME280_temperature;BME280_humidity;BME280_pressure;Samples;Min_cycle;Max_cycle;Signal;HPM_P1;HPM_P2
2023/03/20 00:01:54;;;;;;;15.07;9.27;;;7.90;98.00;;;;;;5042564;28;20184;-90
2023/03/20 00:04:20;;;;;;;13.83;9.67;;;8.10;98.50;;;;;;5031780;28;20225;-90
2023/03/20 00:06:46;;;;;;;13.33;10.23;;;8.00;97.90;;;;;;5053853;28;20193;-86
2023/03/20 00:09:12;;;;;;;16.83;9.33;;;8.00;98.40;;;;;;5052915;28;20196;-87
2023/03/20 00:11:49;;;;;;;14.93;10.37;;;7.80;98.70;;;;;;5055812;28;20230;-89
2023/03/20 00:14:18;;;;;;;13.37;10.77;;;7.80;99.20;;;;;;5048095;28;20177;-91
2023/03/20 00:16:47;;;;;;;14.90;10.80;;;7.80;99.50;;;;;;5040648;28;20365;-94
2023/03/20 00:19:19;;;;;;;12.27;9.77;;;7.80;99.10;;;;;;5023632;28;20688;-91
2023/03/20 00:21:46;;;;;;;12.43;9.07;;;7.70;99.10;;;;;;5041323;28;20181;-93
2023/03/20 00:24:13;;;;;;;11.97;8.53;;;7.70;99.50;;;;;;5037797;28;20222;-93
2023/03/20 00:26:40;;;;;;;11.40;9.00;;;7.80;99.80;;;;;;5037035;28;20200;-93
2023/03/20 00:29:11;;;;;;;13.17;9.83;;;7.80;99.20;;;;;;5019966;28;20521;-92
2023/03/20 00:31:43;;;;;;;15.00;9.77;;;7.90;98.20;;;;;;5038621;28;20174;-87
2023/03/20 00:34:16;;;;;;;14.37;9.63;;;8.00;96.30;;;;;;5052453;28;20162;-86
2023/03/20 00:36:42;;;;;;;14.03;8.93;;;7.90;94.00;;;;;;5054022;28;20173;-88
2023/03/20 00:39:08;;;;;;;15.67;10.53;;;7.80;95.30;;;;;;5049548;28;20231;-88
2023/03/20 00:41:37;;;;;;;12.57;9.53;;;8.00;94.70;;;;;;5038669;28;20174;-91
2023/03/20 00:44:21;;;;;;;15.07;9.97;;;7.90;94.70;;;;;;5037468;28;20213;-91
2023/03/20 00:46:51;;;;;;;13.73;9.43;;;8.00;94.70;;;;;;5042454;28;20200;-91
2023/03/20 00:49:18;;;;;;;11.73;9.40;;;7.90;93.40;;;;;;5040871;28;20182;-92
2023/03/20 00:51:44;;;;;;;13.00;9.00;;;8.00;93.00;;;;;;5024516;28;20231;-90
2023/03/20 00:54:15;;;;;;;13.40;9.10;;;7.90;94.60;;;;;;5035673;28;20177;-87
2023/03/20 00:56:45;;;;;;;15.10;9.27;;;7.90;96.30;;;;;;5039669;28;20232;-91
2023/03/20 00:59:20;;;;;;;14.47;9.00;;;8.00;97.40;;;;;;5039730;28;20201;-91
2023/03/20 01:01:45;;;;;;;12.67;8.30;;;7.90;98.00;;;;;;5056865;28;20177;-88
2023/03/20 01:04:16;;;;;;;13.90;8.77;;;8.00;97.60;;;;;;5046528;28;20209;-91
2023/03/20 01:06:42;;;;;;;14.97;9.30;;;8.20;96.50;;;;;;5026791;28;20189;-89
2023/03/20 01:09:08;;;;;;;13.57;8.43;;;7.90;95.90;;;;;;5050382;28;20177;-90
2023/03/20 01:11:34;;;;;;;15.97;9.13;;;8.10;96.30;;;;;;5038949;28;20656;-91
2023/03/20 01:14:02;;;;;;;13.43;8.83;;;7.90;96.30;;;;;;5048472;28;20204;-87
2023/03/20 01:16:28;;;;;;;11.90;8.97;;;8.00;96.70;;;;;;5054402;28;20181;-93
2023/03/20 01:18:54;;;;;;;11.90;8.80;;;8.20;95.00;;;;;;5021316;28;20320;-92
2023/03/20 01:21:20;;;;;;;14.43;9.93;;;8.30;91.10;;;;;;5037563;28;20224;-91
2023/03/20 01:23:48;;;;;;;13.93;9.43;;;8.30;88.90;;;;;;5038440;28;20252;-92
2023/03/20 01:26:23;;;;;;;15.97;9.93;;;8.30;88.20;;;;;;5037375;28;20169;-92
2023/03/20 01:28:50;;;;;;;14.10;9.90;;;8.20;89.20;;;;;;5037239;28;20185;-92
2023/03/20 01:31:16;;;;;;;13.97;10.10;;;8.20;90.30;;;;;;5019857;28;20197;-92
2023/03/20 01:33:43;;;;;;;12.90;9.03;;;8.10;91.20;;;;;;5039525;28;20232;-89
2023/03/20 01:36:14;;;;;;;13.97;9.50;;;7.90;92.90;;;;;;5059731;28;20165;-87
2023/03/20 01:38:40;;;;;;;15.53;9.53;;;7.80;95.50;;;;;;5058152;28;20162;-86
2023/03/20 01:41:17;;;;;;;13.97;9.43;;;7.80;97.20;;;;;;5054983;28;20309;-90
2023/03/20 01:43:44;;;;;;;15.67;10.30;;;7.80;97.70;;;;;;5044116;28;20197;-93
2023/03/20 01:46:10;;;;;;;13.43;9.33;;;7.80;98.40;;;;;;5044745;28;20173;-89
2023/03/20 01:49:04;;;;;;;14.90;9.50;;;7.70;98.80;;;;;;5045950;28;20173;-92
2023/03/20 01:51:31;;;;;;;16.23;10.40;;;7.70;99.40;;;;;;5029202;28;20204;-93
2023/03/20 01:54:01;;;;;;;15.87;10.17;;;7.80;99.70;;;;;;5044478;28;20220;-91
2023/03/20 01:56:32;;;;;;;15.73;10.00;;;7.80;99.50;;;;;;5057703;28;20204;-87
2023/03/20 01:59:04;;;;;;;14.73;9.53;;;7.70;99.90;;;;;;5043383;28;20633;-87
2023/03/20 02:01:30;;;;;;;15.77;10.80;;;7.70;99.90;;;;;;5058883;28;20178;-90
2023/03/20 02:03:56;;;;;;;15.80;10.13;;;7.70;99.90;;;;;;5056561;28;20260;-87
2023/03/20 02:06:24;;;;;;;14.87;10.37;;;7.70;99.90;;;;;;5055408;28;20177;-91
2023/03/20 02:08:51;;;;;;;13.73;11.00;;;7.80;99.90;;;;;;5053623;28;20178;-86
2023/03/20 02:11:21;;;;;;;19.53;11.63;;;8.10;99.90;;;;;;5048869;28;20176;-92
2023/03/20 02:13:49;;;;;;;15.47;11.07;;;7.90;99.70;;;;;;5025719;28;20246;-90
2023/03/20 02:16:19;;;;;;;17.40;10.27;;;7.80;99.80;;;;;;5040684;28;20502;-89
2023/03/20 02:18:48;;;;;;;17.13;11.00;;;7.70;99.90;;;;;;5046561;28;20213;-89
2023/03/20 02:21:41;;;;;;;14.70;10.53;;;7.60;99.90;;;;;;5029571;28;20228;-91
2023/03/20 02:24:32;;;;;;;22.60;12.23;;;7.70;99.90;;;;;;5038904;28;20221;-91
2023/03/20 02:27:16;;;;;;;14.63;10.20;;;7.60;99.90;;;;;;5037773;28;20212;-92
2023/03/20 02:29:56;;;;;;;15.77;10.97;;;7.70;99.90;;;;;;5038260;28;20170;-91
2023/03/20 02:32:41;;;;;;;17.40;11.97;;;7.70;99.90;;;;;;5036332;28;20174;-92
2023/03/20 02:35:41;;;;;;;18.77;10.93;;;7.70;99.90;;;;;;5046937;28;20185;-86
2023/03/20 02:38:44;;;;;;;20.20;12.20;;;7.70;99.90;;;;;;5056240;28;20235;-88
2023/03/20 02:42:04;;;;;;;16.77;11.37;;;7.80;99.90;;;;;;5053404;28;20142;-92
2023/03/20 02:44:52;;;;;;;19.23;12.13;;;7.60;99.90;;;;;;5013249;28;20257;-90
2023/03/20 02:47:27;;;;;;;21.40;11.70;;;7.60;99.90;;;;;;5037559;28;20175;-91
2023/03/20 02:49:55;;;;;;;21.33;12.23;;;7.70;99.90;;;;;;5021868;28;20208;-89
2023/03/20 02:52:32;;;;;;;19.13;12.33;;;7.60;99.90;;;;;;5027815;28;20162;-90
2023/03/20 02:55:38;;;;;;;22.37;12.33;;;7.70;99.90;;;;;;5026251;28;20236;-92
2023/03/20 02:58:11;;;;;;;18.37;12.27;;;7.70;99.90;;;;;;5038447;28;20150;-89
2023/03/20 03:01:02;;;;;;;18.80;12.30;;;7.80;99.90;;;;;;5037645;28;20186;-87
2023/03/20 03:03:42;;;;;;;23.03;13.17;;;7.80;99.90;;;;;;5019111;28;20194;-86
2023/03/20 03:06:29;;;;;;;22.67;12.60;;;7.80;99.90;;;;;;5032507;28;20150;-87
2023/03/20 03:09:12;;;;;;;21.47;12.43;;;7.70;99.90;;;;;;5036971;28;20257;-84
2023/03/20 03:11:44;;;;;;;16.83;12.57;;;7.90;99.90;;;;;;5032603;28;20178;-85
2023/03/20 03:14:18;;;;;;;20.67;12.97;;;7.70;99.90;;;;;;5033051;28;20167;-91
2023/03/20 03:16:46;;;;;;;23.53;12.53;;;7.60;99.90;;;;;;4999050;28;20177;-85
2023/03/20 03:19:20;;;;;;;20.53;11.97;;;7.50;99.90;;;;;;5012128;28;20670;-91
2023/03/20 03:21:47;;;;;;;22.40;12.67;;;7.50;99.90;;;;;;5018307;28;20836;-91
2023/03/20 03:24:37;;;;;;;22.60;13.47;;;7.50;99.90;;;;;;5018642;28;20221;-93
2023/03/20 03:27:14;;;;;;;19.80;12.27;;;7.60;99.90;;;;;;5017892;28;20178;-92
2023/03/20 03:29:41;;;;;;;18.50;12.77;;;7.70;99.90;;;;;;5017197;28;20170;-93
2023/03/20 03:32:19;;;;;;;19.73;12.37;;;7.60;99.90;;;;;;5017569;28;20608;-92
2023/03/20 03:34:45;;;;;;;21.47;12.37;;;7.70;99.90;;;;;;5017830;28;20184;-93
2023/03/20 03:37:56;;;;;;;24.77;12.57;;;7.60;99.90;;;;;;5032762;28;20166;-86
2023/03/20 03:40:41;;;;;;;20.77;12.03;;;7.60;99.90;;;;;;5037910;28;20254;-86
2023/03/20 03:43:34;;;;;;;25.33;12.13;;;7.70;99.90;;;;;;5037348;28;20209;-91
2023/03/20 03:46:32;;;;;;;20.27;11.53;;;7.70;99.90;;;;;;5031036;28;20178;-89
2023/03/20 03:49:00;;;;;;;20.20;11.53;;;7.60;99.90;;;;;;5026938;28;20205;-90
2023/03/20 03:51:30;;;;;;;17.63;11.30;;;7.70;99.90;;;;;;5034489;28;20185;-90
2023/03/20 03:54:10;;;;;;;18.67;12.30;;;7.60;99.90;;;;;;5025388;28;20781;-90
2023/03/20 03:56:39;;;;;;;23.97;11.50;;;7.60;99.90;;;;;;5018363;28;20250;-92
2023/03/20 03:59:10;;;;;;;19.73;11.27;;;7.70;99.90;;;;;;5016510;28;20175;-90
2023/03/20 04:01:42;;;;;;;22.03;11.17;;;7.70;99.90;;;;;;5023946;28;20206;-91
2023/03/20 04:04:12;;;;;;;19.63;11.30;;;7.80;99.90;;;;;;5016899;28;20210;-89
2023/03/20 04:06:38;;;;;;;20.40;11.37;;;7.70;99.90;;;;;;5017738;28;20174;-93
2023/03/20 04:09:03;;;;;;;18.33;10.87;;;7.70;99.90;;;;;;5017767;28;20265;-90
2023/03/20 04:11:29;;;;;;;21.03;11.27;;;7.70;99.90;;;;;;5016776;28;20166;-92
2023/03/20 04:13:55;;;;;;;17.43;10.10;;;7.70;99.90;;;;;;5014723;28;20174;-91
2023/03/20 04:16:22;;;;;;;21.17;11.13;;;7.70;99.90;;;;;;5015357;28;20649;-92
2023/03/20 04:18:50;;;;;;;18.80;10.57;;;7.70;99.90;;;;;;5016903;28;20677;-91
2023/03/20 04:21:17;;;;;;;18.20;10.40;;;7.70;99.90;;;;;;5021099;28;20332;-91
2023/03/20 04:23:43;;;;;;;18.57;10.53;;;7.70;99.90;;;;;;5020484;28;20577;-92
2023/03/20 04:26:09;;;;;;;21.93;11.63;;;7.70;99.90;;;;;;5022445;28;20325;-92
2023/03/20 04:28:35;;;;;;;19.43;10.57;;;7.70;99.90;;;;;;5028496;28;20177;-91
2023/03/20 04:31:07;;;;;;;16.37;9.87;;;7.60;99.90;;;;;;5030971;28;20693;-89
2023/03/20 04:33:33;;;;;;;20.63;10.10;;;7.60;99.90;;;;;;5006894;28;20277;-91
2023/03/20 04:35:58;;;;;;;22.87;9.97;;;7.60;99.90;;;;;;5021981;28;20201;-91
2023/03/20 04:38:24;;;;;;;18.77;10.00;;;7.50;99.90;;;;;;5029503;28;20178;-93
2023/03/20 04:40:51;;;;;;;16.83;10.30;;;7.50;99.90;;;;;;5020818;28;20174;-90
2023/03/20 04:43:17;;;;;;;16.77;8.93;;;7.40;99.90;;;;;;5021084;28;20210;-92
2023/03/20 04:45:44;;;;;;;18.33;9.77;;;7.50;99.90;;;;;;5021302;28;20170;-93
2023/03/20 04:48:10;;;;;;;20.07;9.40;;;7.40;99.90;;;;;;5020168;28;20177;-91
2023/03/20 04:50:36;;;;;;;21.20;10.03;;;7.40;99.90;;;;;;5029201;28;20170;-91
2023/03/20 04:53:03;;;;;;;17.07;9.60;;;7.40;99.90;;;;;;5029571;28;20655;-93
2023/03/20 04:55:29;;;;;;;17.50;9.70;;;7.30;99.90;;;;;;5022311;28;20186;-91
2023/03/20 04:57:55;;;;;;;17.47;8.60;;;7.30;99.90;;;;;;5026044;28;20194;-92
2023/03/20 05:00:21;;;;;;;20.37;9.37;;;7.30;99.90;;;;;;5038894;28;20201;-89
2023/03/20 05:02:49;;;;;;;14.37;8.37;;;7.30;99.90;;;;;;5031649;28;20171;-92
2023/03/20 05:05:15;;;;;;;18.73;9.23;;;7.20;99.90;;;;;;5022533;28;20178;-93
2023/03/20 05:07:41;;;;;;;16.57;8.80;;;7.20;99.90;;;;;;5024713;28;20166;-90
2023/03/20 05:10:07;;;;;;;17.60;8.57;;;7.20;99.90;;;;;;5030138;28;20205;-92
2023/03/20 05:12:33;;;;;;;19.40;9.30;;;7.20;99.90;;;;;;5025541;28;20158;-91
2023/03/20 05:14:59;;;;;;;17.17;9.00;;;7.20;99.90;;;;;;5029076;28;20178;-92
2023/03/20 05:17:25;;;;;;;14.90;9.20;;;7.30;99.90;;;;;;5036531;28;20216;-93
2023/03/20 05:19:52;;;;;;;17.53;8.30;;;7.30;99.90;;;;;;5025915;28;20551;-93
2023/03/20 05:22:18;;;;;;;13.80;7.27;;;7.30;99.90;;;;;;5022585;28;20278;-91
2023/03/20 05:24:44;;;;;;;13.40;8.23;;;7.30;99.90;;;;;;5025132;28;20230;-92
2023/03/20 05:27:10;;;;;;;16.07;8.07;;;7.20;99.90;;;;;;5039727;28;20175;-90
2023/03/20 05:29:37;;;;;;;14.23;7.33;;;7.20;99.90;;;;;;5040320;28;20264;-91
2023/03/20 05:32:03;;;;;;;18.43;8.13;;;7.20;99.90;;;;;;5038943;28;20257;-92
2023/03/20 05:34:28;;;;;;;17.27;8.90;;;7.20;99.90;;;;;;5040073;28;20205;-89
2023/03/20 05:36:54;;;;;;;17.97;8.03;;;7.20;99.90;;;;;;5041760;28;20182;-90
2023/03/20 05:39:21;;;;;;;11.37;6.80;;;7.40;99.90;;;;;;5059273;28;20177;-86
2023/03/20 05:41:47;;;;;;;17.37;7.70;;;7.40;99.90;;;;;;5059372;28;20190;-85
2023/03/20 05:44:16;;;;;;;17.73;7.93;;;7.40;99.90;;;;;;5057565;28;20211;-90
2023/03/20 05:46:41;;;;;;;12.97;7.00;;;7.30;99.90;;;;;;5056834;28;20174;-91
2023/03/20 05:49:07;;;;;;;16.20;8.07;;;7.40;99.90;;;;;;5032484;28;20185;-92
2023/03/20 05:51:33;;;;;;;14.30;7.10;;;7.40;99.90;;;;;;5041598;28;20166;-91
2023/03/20 05:53:58;;;;;;;18.83;7.87;;;7.50;99.90;;;;;;5045879;28;20673;-90
2023/03/20 05:56:24;;;;;;;17.03;8.20;;;7.50;99.90;;;;;;5037927;28;20174;-94
2023/03/20 05:58:50;;;;;;;18.40;8.13;;;7.70;99.90;;;;;;5038556;28;20181;-89
2023/03/20 06:01:20;;;;;;;17.03;7.33;;;7.60;99.90;;;;;;5040054;28;20174;-91
2023/03/20 06:03:47;;;;;;;14.70;7.13;;;7.80;99.90;;;;;;5037434;28;20209;-93
2023/03/20 06:06:14;;;;;;;11.60;6.43;;;7.60;99.90;;;;;;5020258;28;20174;-94
2023/03/20 06:08:40;;;;;;;16.67;7.27;;;7.60;99.90;;;;;;5046207;28;20185;-90
2023/03/20 06:11:10;;;;;;;11.80;6.50;;;7.60;99.90;;;;;;5040680;28;20178;-91
2023/03/20 06:13:36;;;;;;;13.87;7.00;;;7.60;99.90;;;;;;5042419;28;20264;-93
2023/03/20 06:16:03;;;;;;;16.03;6.80;;;7.60;99.90;;;;;;5051160;28;20192;-87
2023/03/20 06:18:29;;;;;;;18.67;7.20;;;7.70;99.90;;;;;;5058266;28;20164;-87
2023/03/20 06:20:58;;;;;;;19.93;7.20;;;7.70;99.90;;;;;;5049108;28;20233;-91
2023/03/20 06:23:24;;;;;;;17.47;6.70;;;7.80;99.90;;;;;;5054980;28;20205;-93
2023/03/20 06:25:50;;;;;;;17.27;7.10;;;7.70;99.90;;;;;;5037210;28;20177;-92
2023/03/20 06:28:16;;;;;;;13.93;6.97;;;7.60;99.90;;;;;;5042105;28;20231;-93
2023/03/20 06:30:44;;;;;;;17.07;6.90;;;7.60;99.90;;;;;;5040264;28;20185;-91
2023/03/20 06:33:10;;;;;;;16.90;6.63;;;7.60;99.90;;;;;;5038315;28;20212;-89
2023/03/20 06:35:36;;;;;;;17.83;6.37;;;7.60;99.90;;;;;;5049988;28;20173;-89
2023/03/20 06:38:01;;;;;;;15.63;6.07;;;7.60;99.90;;;;;;5049624;28;20536;-92
2023/03/20 06:40:27;;;;;;;10.60;5.60;;;7.40;99.90;;;;;;5042709;28;20180;-92
2023/03/20 06:42:54;;;;;;;17.30;6.77;;;7.40;99.90;;;;;;5040519;28;20280;-90
2023/03/20 06:45:21;;;;;;;12.63;5.53;;;7.50;99.90;;;;;;5050240;28;20162;-91
2023/03/20 06:47:48;;;;;;;12.87;6.07;;;7.60;99.90;;;;;;5030680;28;20181;-91
2023/03/20 06:50:14;;;;;;;16.07;5.97;;;7.60;99.90;;;;;;5052820;28;20166;-90
2023/03/20 06:52:41;;;;;;;18.97;5.53;;;7.50;99.90;;;;;;5051611;28;20166;-91
2023/03/20 06:55:10;;;;;;;15.60;5.33;;;7.60;99.90;;;;;;5024823;28;20184;-87
2023/03/20 06:57:36;;;;;;;13.53;5.70;;;7.60;99.90;;;;;;5042406;28;20198;-94
2023/03/20 07:00:03;;;;;;;16.17;5.63;;;7.60;99.90;;;;;;5041375;28;20176;-91
2023/03/20 07:02:31;;;;;;;14.17;5.43;;;7.60;99.90;;;;;;5042673;28;20253;-94
2023/03/20 07:04:58;;;;;;;11.37;5.47;;;7.60;99.60;;;;;;5036455;28;20683;-90
2023/03/20 07:07:23;;;;;;;11.63;4.73;;;7.60;99.40;;;;;;5036935;28;20181;-93
2023/03/20 07:09:49;;;;;;;12.07;5.63;;;7.50;99.90;;;;;;5041786;28;20170;-92
2023/03/20 07:12:18;;;;;;;12.17;4.90;;;7.50;99.90;;;;;;5045557;28;20170;-91
2023/03/20 07:14:46;;;;;;;10.83;4.60;;;7.70;99.90;;;;;;5045810;28;20174;-87
2023/03/20 07:17:12;;;;;;;11.90;5.17;;;7.70;98.70;;;;;;5043755;28;20239;-87
2023/03/20 07:19:38;;;;;;;11.97;4.80;;;7.60;99.00;;;;;;5045833;28;20189;-87
2023/03/20 07:22:06;;;;;;;12.73;4.77;;;7.60;98.70;;;;;;5036074;28;20268;-90
2023/03/20 07:24:33;;;;;;;12.37;5.47;;;7.70;98.20;;;;;;5055941;28;20205;-87
2023/03/20 07:26:59;;;;;;;14.17;5.17;;;7.80;96.30;;;;;;5039253;28;20292;-88
2023/03/20 07:29:33;;;;;;;12.97;4.87;;;7.80;96.30;;;;;;5053838;28;20173;-93
2023/03/20 07:31:59;;;;;;;13.43;4.47;;;7.80;95.20;;;;;;5049732;28;20166;-89
2023/03/20 07:34:31;;;;;;;13.33;4.43;;;7.80;95.50;;;;;;5030428;28;20173;-92
2023/03/20 07:36:58;;;;;;;16.00;4.83;;;7.80;95.10;;;;;;5045331;28;20185;-95
2023/03/20 07:39:24;;;;;;;12.93;5.03;;;7.90;95.30;;;;;;5045737;28;20178;-91
2023/03/20 07:41:50;;;;;;;15.83;4.80;;;8.00;94.80;;;;;;5052812;28;20197;-88
2023/03/20 07:44:19;;;;;;;9.07;4.47;;;8.10;92.10;;;;;;5044691;28;20724;-96
2023/03/20 07:46:48;;;;;;;12.70;4.93;;;8.20;90.00;;;;;;5051932;28;20169;-90
2023/03/20 07:49:18;;;;;;;12.23;4.50;;;8.00;89.50;;;;;;5055643;28;20195;-86
2023/03/20 07:51:48;;;;;;;9.90;3.70;;;8.10;90.60;;;;;;5056060;28;20225;-90
2023/03/20 07:54:14;;;;;;;14.00;4.87;;;8.30;89.00;;;;;;5059043;28;20173;-86
2023/03/20 07:56:41;;;;;;;14.70;4.80;;;8.10;86.30;;;;;;5060095;28;20161;-86
2023/03/20 07:59:07;;;;;;;12.17;5.13;;;8.10;87.50;;;;;;5058697;28;20192;-88
2023/03/20 08:01:33;;;;;;;14.97;4.53;;;8.10;87.70;;;;;;5056536;28;20177;-92
2023/03/20 08:03:59;;;;;;;17.60;4.77;;;8.20;85.30;;;;;;5053224;28;20220;-88
2023/03/20 08:06:25;;;;;;;8.90;4.50;;;8.50;85.00;;;;;;5057428;28;20173;-87
2023/03/20 08:08:51;;;;;;;14.80;4.93;;;8.30;82.50;;;;;;5058241;28;20181;-87
2023/03/20 08:11:21;;;;;;;18.23;4.47;;;8.30;83.50;;;;;;5058531;28;20224;-92
2023/03/20 08:13:52;;;;;;;17.00;5.23;;;8.30;82.80;;;;;;5059165;28;20178;-87
2023/03/20 08:16:19;;;;;;;12.53;4.83;;;8.40;82.60;;;;;;5056741;28;20178;-95
2023/03/20 08:18:46;;;;;;;15.50;4.23;;;8.40;78.80;;;;;;5050370;28;20189;-94
2023/03/20 08:21:13;;;;;;;14.37;4.40;;;8.30;79.00;;;;;;5052741;28;20295;-93
2023/03/20 08:23:40;;;;;;;12.37;4.47;;;8.30;80.70;;;;;;5050797;28;20205;-90
2023/03/20 08:26:06;;;;;;;9.77;4.17;;;8.40;81.50;;;;;;5059143;28;20174;-93
2023/03/20 08:28:32;;;;;;;10.83;3.67;;;8.30;80.80;;;;;;5060406;28;20173;-90
2023/03/20 08:30:59;;;;;;;11.73;4.30;;;8.40;75.90;;;;;;5060223;28;20172;-87
2023/03/20 08:33:25;;;;;;;10.83;4.30;;;8.40;74.60;;;;;;5057570;28;20200;-87
2023/03/20 08:35:59;;;;;;;14.87;5.40;;;8.70;71.50;;;;;;5048730;28;20162;-89
2023/03/20 08:38:26;;;;;;;11.73;4.27;;;8.70;65.60;;;;;;5034661;28;20204;-87
2023/03/20 08:40:53;;;;;;;16.83;4.47;;;8.70;65.00;;;;;;5056744;28;20170;-86
2023/03/20 08:43:19;;;;;;;17.93;5.37;;;8.90;63.60;;;;;;5059225;28;20212;-85
2023/03/20 08:45:45;;;;;;;12.97;5.30;;;9.00;60.60;;;;;;5058582;28;20180;-87
2023/03/20 08:48:11;;;;;;;13.13;5.07;;;8.90;62.80;;;;;;5059707;28;20182;-87
2023/03/20 08:50:37;;;;;;;12.50;4.73;;;8.90;58.10;;;;;;5041508;28;20197;-85
2023/03/20 08:53:04;;;;;;;16.20;5.53;;;8.90;56.90;;;;;;5048921;28;20186;-92
2023/03/20 08:55:31;;;;;;;17.93;5.03;;;8.90;51.70;;;;;;5053059;28;20185;-90
2023/03/20 08:57:57;;;;;;;12.97;4.77;;;9.00;50.10;;;;;;5054125;28;20252;-94
2023/03/20 09:00:24;;;;;;;15.17;5.63;;;9.00;52.90;;;;;;5046379;28;20182;-90
2023/03/20 09:02:53;;;;;;;10.63;4.87;;;8.90;55.90;;;;;;5028765;28;20264;-87
2023/03/20 09:05:23;;;;;;;13.17;4.87;;;8.90;57.70;;;;;;5057588;28;20169;-89
2023/03/20 09:07:52;;;;;;;14.93;4.97;;;9.00;58.00;;;;;;5047322;28;20190;-92
2023/03/20 09:10:21;;;;;;;12.70;5.40;;;8.90;55.30;;;;;;5049090;28;20260;-91
2023/03/20 09:12:48;;;;;;;11.60;4.67;;;9.00;54.20;;;;;;5050305;28;20196;-94
2023/03/20 09:15:14;;;;;;;15.73;5.13;;;9.00;52.50;;;;;;5042003;28;20181;-93
2023/03/20 09:17:39;;;;;;;12.33;5.57;;;8.90;52.70;;;;;;5039923;28;20166;-92
2023/03/20 09:20:05;;;;;;;12.03;4.40;;;8.90;52.40;;;;;;5040638;28;20216;-94
2023/03/20 09:22:31;;;;;;;12.13;4.77;;;8.90;53.00;;;;;;5043069;28;20190;-95
2023/03/20 09:24:57;;;;;;;11.00;4.33;;;9.00;52.80;;;;;;5043194;28;20307;-92
2023/03/20 09:27:23;;;;;;;11.97;5.00;;;9.10;50.10;;;;;;5026833;28;20204;-94
2023/03/20 09:29:49;;;;;;;10.30;4.93;;;9.20;45.80;;;;;;5045520;28;20204;-92
2023/03/20 09:32:14;;;;;;;10.83;5.23;;;9.20;44.80;;;;;;5049290;28;20173;-94
2023/03/20 09:34:40;;;;;;;11.47;4.87;;;9.30;42.80;;;;;;5043234;28;20177;-90
2023/03/20 09:37:12;;;;;;;14.77;5.00;;;9.20;44.60;;;;;;5041806;28;20174;-92
2023/03/20 09:39:41;;;;;;;14.47;5.03;;;9.40;45.40;;;;;;5041457;28;20271;-92
2023/03/20 09:42:24;;;;;;;9.13;4.43;;;9.30;42.90;;;;;;5045136;28;20180;-92
2023/03/20 09:45:23;;;;;;;13.27;5.50;;;9.40;40.30;;;;;;5042437;28;20305;-93
2023/03/20 09:48:05;;;;;;;13.07;4.73;;;9.60;38.40;;;;;;5042531;28;20258;-92
2023/03/20 09:51:16;;;;;;;10.13;4.27;;;9.70;33.80;;;;;;5040272;28;20197;-96
2023/03/20 09:54:30;;;;;;;11.77;4.23;;;9.80;29.00;;;;;;5042800;28;20192;-87
2023/03/20 09:56:57;;;;;;;11.70;3.93;;;9.80;28.00;;;;;;5031669;28;20181;-90
2023/03/20 09:59:27;;;;;;;10.07;5.43;;;9.80;28.40;;;;;;5058431;28;20241;-86
2023/03/20 10:01:58;;;;;;;11.00;4.77;;;9.80;28.20;;;;;;5041763;28;20177;-89
2023/03/20 10:04:31;;;;;;;14.00;5.00;;;9.90;26.00;;;;;;5054387;28;20232;-92
2023/03/20 10:06:59;;;;;;;14.73;5.47;;;9.90;24.40;;;;;;5046802;28;20178;-92
2023/03/20 10:09:30;;;;;;;13.13;4.63;;;10.00;24.10;;;;;;5043410;28;20170;-91
2023/03/20 10:12:07;;;;;;;11.37;4.57;;;10.00;24.80;;;;;;5042476;28;20214;-93
2023/03/20 10:14:58;;;;;;;8.33;4.00;;;10.00;23.50;;;;;;5043011;28;20227;-89
2023/03/20 10:17:50;;;;;;;13.53;5.57;;;10.10;21.00;;;;;;5044802;28;20161;-92
2023/03/20 10:20:24;;;;;;;15.67;5.10;;;10.30;19.60;;;;;;5045910;28;20189;-91
2023/03/20 10:23:16;;;;;;;13.37;4.70;;;10.30;19.00;;;;;;5046027;28;20536;-91
2023/03/20 10:25:51;;;;;;;10.73;4.63;;;10.30;19.40;;;;;;5050245;28;20277;-85
2023/03/20 10:28:50;;;;;;;11.70;4.30;;;10.40;16.70;;;;;;5055006;28;20236;-90
2023/03/20 10:31:28;;;;;;;10.10;4.37;;;10.70;11.60;;;;;;5050681;28;20223;-90
2023/03/20 10:34:21;;;;;;;11.57;4.30;;;10.70;10.90;;;;;;5048794;28;20181;-91
2023/03/20 10:37:04;;;;;;;11.43;4.53;;;10.80;8.30;;;;;;5048189;28;20177;-88
2023/03/20 10:39:49;;;;;;;12.80;4.63;;;10.90;6.10;;;;;;5053947;28;20173;-90
2023/03/20 10:42:37;;;;;;;12.93;3.80;;;11.00;6.10;;;;;;5049044;28;20165;-87
2023/03/20 10:45:29;;;;;;;10.07;3.73;;;11.00;1.00;;;;;;5051664;28;20277;-86
2023/03/20 10:48:03;;;;;;;15.13;4.57;;;11.00;1.00;;;;;;5055344;28;20201;-88
2023/03/20 10:50:41;;;;;;;9.87;3.17;;;11.00;1.00;;;;;;5013263;28;20179;-93
2023/03/20 10:53:07;;;;;;;11.13;3.40;;;11.30;1.00;;;;;;5042199;28;20649;-94
2023/03/20 10:55:39;;;;;;;8.70;3.60;;;11.30;1.00;;;;;;5024945;28;20174;-92
2023/03/20 10:58:23;;;;;;;13.90;4.03;;;11.30;1.00;;;;;;5041962;28;20181;-92
2023/03/20 11:00:52;;;;;;;10.57;3.50;;;11.20;1.00;;;;;;5047592;28;20181;-87
2023/03/20 11:03:28;;;;;;;11.57;3.50;;;11.20;1.00;;;;;;5049382;28;20213;-91
2023/03/20 11:06:04;;;;;;;12.03;3.13;;;11.10;1.00;;;;;;5043543;28;20174;-91
2023/03/20 11:08:40;;;;;;;14.67;4.00;;;11.00;1.00;;;;;;5045470;28;20164;-86
2023/03/20 11:11:05;;;;;;;10.23;3.80;;;11.10;1.00;;;;;;5054079;28;20177;-83
2023/03/20 11:13:35;;;;;;;11.67;3.47;;;11.20;1.00;;;;;;5055291;28;20166;-83
2023/03/20 11:16:21;;;;;;;11.90;3.50;;;11.40;1.00;;;;;;5056226;28;20150;-84
2023/03/20 11:18:48;;;;;;;11.33;4.00;;;11.40;1.00;;;;;;5054862;28;20181;-88
2023/03/20 11:21:20;;;;;;;14.03;3.83;;;11.40;1.00;;;;;;5054834;28;20276;-92
2023/03/20 11:23:48;;;;;;;8.60;2.90;;;11.40;1.00;;;;;;5045963;28;20222;-89
2023/03/20 11:26:19;;;;;;;9.37;3.30;;;11.30;1.00;;;;;;5028673;28;20237;-89
2023/03/20 11:28:51;;;;;;;12.63;4.17;;;11.30;1.00;;;;;;5026582;28;20614;-94
2023/03/20 11:31:52;;;;;;;9.43;3.83;;;11.30;1.00;;;;;;5043696;28;20186;-93
2023/03/20 11:34:22;;;;;;;13.37;4.33;;;11.50;1.00;;;;;;5043959;28;20181;-95
2023/03/20 11:36:54;;;;;;;11.20;3.47;;;11.50;1.00;;;;;;5045224;28;20231;-87
2023/03/20 11:39:26;;;;;;;13.90;3.90;;;11.40;1.00;;;;;;5049168;28;20173;-94
2023/03/20 11:41:55;;;;;;;10.53;3.93;;;11.60;1.00;;;;;;5041851;28;20180;-93
2023/03/20 11:44:32;;;;;;;12.23;3.97;;;11.50;1.00;;;;;;5046714;28;20503;-88
2023/03/20 11:47:04;;;;;;;19.40;4.27;;;11.60;1.00;;;;;;5050406;28;20161;-87
2023/03/20 11:49:53;;;;;;;11.37;3.83;;;11.50;1.00;;;;;;5046828;28;20242;-91
2023/03/20 11:52:27;;;;;;;13.80;3.70;;;11.60;1.00;;;;;;5045766;28;20173;-88
2023/03/20 11:55:30;;;;;;;9.37;3.77;;;11.60;1.00;;;;;;5042972;28;20208;-87
2023/03/20 11:58:02;;;;;;;8.07;3.70;;;11.50;1.00;;;;;;5051583;28;20160;-85
2023/03/20 12:00:38;;;;;;;10.53;3.90;;;11.50;1.00;;;;;;5035541;28;20737;-87
2023/03/20 12:03:43;;;;;;;12.53;3.97;;;11.30;1.00;;;;;;5055525;28;20216;-88
2023/03/20 12:06:24;;;;;;;15.07;4.60;;;11.70;1.00;;;;;;5053847;28;20192;-87
2023/03/20 12:09:04;;;;;;;13.30;4.23;;;11.90;1.00;;;;;;5028126;28;20161;-90
2023/03/20 12:11:53;;;;;;;11.07;3.73;;;12.20;1.00;;;;;;5043113;28;20178;-86
2023/03/20 12:14:37;;;;;;;10.73;3.87;;;12.30;1.00;;;;;;5044260;28;20170;-90
2023/03/20 12:17:42;;;;;;;14.83;4.63;;;12.50;1.00;;;;;;5042510;28;20200;-93
2023/03/20 12:20:18;;;;;;;11.97;5.03;;;12.60;1.00;;;;;;5049843;28;20174;-89
2023/03/20 12:23:12;;;;;;;13.20;4.20;;;12.70;1.00;;;;;;5049837;28;20195;-93
2023/03/20 12:25:51;;;;;;;11.73;4.70;;;12.70;1.00;;;;;;5034451;28;20197;-90
2023/03/20 12:28:53;;;;;;;10.80;4.83;;;12.80;1.00;;;;;;5047275;28;20494;-87
2023/03/20 12:34:48;;;;;;;13.90;4.67;;;12.90;1.00;;;;;;5043214;28;20232;-91
2023/03/20 12:37:17;;;;;;;12.10;5.03;;;12.80;1.00;;;;;;5044373;28;20173;-93
2023/03/20 12:39:58;;;;;;;12.70;5.20;;;12.90;1.00;;;;;;5052781;28;20237;-88
2023/03/20 12:42:27;;;;;;;12.93;4.50;;;13.00;1.00;;;;;;5055896;28;20182;-92
2023/03/20 12:45:17;;;;;;;8.73;4.37;;;13.00;1.00;;;;;;5052237;28;20227;-92
2023/03/20 12:47:48;;;;;;;14.23;5.13;;;13.00;1.00;;;;;;5048228;28;20266;-89
2023/03/20 12:50:31;;;;;;;16.77;4.93;;;13.00;1.00;;;;;;5051045;28;20173;-91
2023/03/20 12:53:31;;;;;;;11.53;5.07;;;12.90;1.00;;;;;;5052300;28;20189;-94
2023/03/20 12:56:17;;;;;;;13.93;5.80;;;13.00;1.00;;;;;;5049003;28;20174;-93
2023/03/20 12:58:46;;;;;;;14.70;5.33;;;13.00;1.00;;;;;;5047315;28;20216;-94
2023/03/20 13:01:30;;;;;;;12.47;4.83;;;12.90;1.00;;;;;;5040343;28;20186;-92
2023/03/20 13:04:30;;;;;;;11.37;4.93;;;12.80;1.00;;;;;;5033599;28;20209;-89
2023/03/20 13:07:04;;;;;;;10.43;5.13;;;12.40;1.00;;;;;;5058823;28;20174;-91
2023/03/20 13:09:52;;;;;;;13.60;5.20;;;12.50;1.00;;;;;;5032104;28;20637;-92
2023/03/20 13:12:21;;;;;;;14.33;5.50;;;12.40;1.00;;;;;;5045319;28;20174;-93
2023/03/20 13:15:12;;;;;;;12.27;5.53;;;12.40;1.00;;;;;;5051942;28;20169;-86
2023/03/20 13:17:53;;;;;;;14.73;5.63;;;12.40;1.00;;;;;;5058903;28;20173;-85